Tesuque, New Mexico
Current Conditions -  °F | °C
As of 3:53 PM on Thursday 20 Nov 2014 (Local Time) from KSAF Reporting Station
Clear Clear  
Wind Chill: 52°   Ceiling: Unl
Heat Index: 52°   Visibility: 10mi
Dew Point:   Wind: 3mph
Humidity: 14%   Direction: 340°NNW
Pressure: 30.03"   Gusts: NA
Location:  35.76°N, 105.94°W
Report Text: KSAF 202253Z 34003KT 10SM CLR 11/M16 A3003 RMK AO2 SLP145 T01111156
Loading
Personal Weather Stations






























Interactive Weather Map New forecast layout! Learn more

10-Day Weather Forecast

Advertisements
Track Severe Weather on mobile